Time;durP1;ratioP1;P1;durP2;ratioP2;P2;SDS_P1;SDS_P2;PMS_P1;PMS_P2;Temp;Humidity;BMP_temperature;BMP_pressure;BME280_temperature;BME280_humidity;BME280_pressure;Samples;Min_cycle;Max_cycle;Signal;HPM_P1;HPM_P2
2023/09/21 00:00:56;;;;;;;;;;;;;;;;;;4968313;28;89396;-66
2023/09/21 00:03:22;;;;;;;;;;;;;;;;;;4958320;28;89260;-66
2023/09/21 00:05:51;;;;;;;;;;;;;;;;;;4974408;28;89749;-66
2023/09/21 00:08:16;;;;;;;;;;;;;;;;;;4961806;28;90620;-66
2023/09/21 00:10:41;;;;;;;;;;;;;;;;;;4960990;28;89961;-66
2023/09/21 00:13:07;;;;;;;;;;;;;;;;;;4962041;28;89434;-66
2023/09/21 00:15:33;;;;;;;;;;;;;;;;;;4971471;28;91801;-67
2023/09/21 00:17:58;;;;;;;;;;;;;;;;;;4965092;28;90340;-66
2023/09/21 00:20:33;;;;;;;;;;;;;;;;;;4960948;28;89682;-66
2023/09/21 00:22:59;;;;;;;;;;;;;;;;;;4954412;28;90082;-66
2023/09/21 00:25:26;;;;;;;;;;;;;;;;;;4964746;28;89230;-66
2023/09/21 00:27:51;;;;;;;;;;;;;;;;;;4961117;28;91506;-67
2023/09/21 00:30:16;;;;;;;;;;;;;;;;;;4956810;28;89074;-66
2023/09/21 00:32:41;;;;;;;;;;;;;;;;;;4965125;28;89667;-66
2023/09/21 00:35:09;;;;;;;;;;;;;;;;;;4960943;28;89770;-66
2023/09/21 00:37:35;;;;;;;;;;;;;;;;;;4957722;28;90296;-65
2023/09/21 00:40:00;;;;;;;;;;;;;;;;;;4956851;28;89040;-66
2023/09/21 00:42:25;;;;;;;;;;;;;;;;;;4963190;28;90807;-66
2023/09/21 00:44:51;;;;;;;;;;;;;;;;;;4967646;28;89817;-66
2023/09/21 00:47:17;;;;;;;;;;;;;;;;;;4958851;28;90166;-66
2023/09/21 00:49:42;;;;;;;;;;;;;;;;;;4955968;28;91058;-66
2023/09/21 00:52:11;;;;;;;;;;;;;;;;;;4960196;28;89116;-66
2023/09/21 00:54:37;;;;;;;;;;;;;;;;;;4960866;28;89375;-66
2023/09/21 00:57:02;;;;;;;;;;;;;;;;;;4957132;28;89885;-66
2023/09/21 00:59:29;;;;;;;;;;;;;;;;;;4959179;28;89042;-66
2023/09/21 01:01:54;;;;;;;;;;;;;;;;;;4961162;28;90574;-66
2023/09/21 01:04:21;;;;;;;;;;;;;;;;;;4962576;28;89728;-66
2023/09/21 01:06:47;;;;;;;;;;;;;;;;;;4956225;28;90760;-66
2023/09/21 01:09:13;;;;;;;;;;;;;;;;;;4956419;28;90494;-66
2023/09/21 01:11:38;;;;;;;;;;;;;;;;;;4958140;28;89718;-66
2023/09/21 01:14:04;;;;;;;;;;;;;;;;;;4960966;28;89909;-66
2023/09/21 01:16:30;;;;;;;;;;;;;;;;;;4961332;28;90186;-66
2023/09/21 01:18:55;;;;;;;;;;;;;;;;;;4957539;28;89812;-66
2023/09/21 01:21:34;;;;;;;;;;;;;;;;;;4953848;28;88982;-66
2023/09/21 01:23:59;;;;;;;;;;;;;;;;;;4954156;28;90182;-66
2023/09/21 01:26:25;;;;;;;;;;;;;;;;;;4957754;28;89530;-66
2023/09/21 01:28:50;;;;;;;;;;;;;;;;;;4960061;28;92654;-66
2023/09/21 01:31:15;;;;;;;;;;;;;;;;;;4955756;28;89174;-67
2023/09/21 01:33:44;;;;;;;;;;;;;;;;;;4959902;28;90108;-66
2023/09/21 01:36:12;;;;;;;;;;;;;;;;;;4955086;28;89140;-66
2023/09/21 01:38:37;;;;;;;;;;;;;;;;;;4956871;28;90375;-66
2023/09/21 01:41:04;;;;;;;;;;;;;;;;;;4957082;28;89989;-66
2023/09/21 01:43:29;;;;;;;;;;;;;;;;;;4955284;28;89518;-66
2023/09/21 01:45:54;;;;;;;;;;;;;;;;;;4959732;28;89231;-66
2023/09/21 01:48:20;;;;;;;;;;;;;;;;;;4966376;28;89641;-66
2023/09/21 01:50:50;;;;;;;;;;;;;;;;;;4964111;28;90178;-66
2023/09/21 01:53:17;;;;;;;;;;;;;;;;;;4969166;28;89748;-66
2023/09/21 01:55:43;;;;;;;;;;;;;;;;;;4962917;28;90068;-66
2023/09/21 01:58:11;;;;;;;;;;;;;;;;;;4960607;28;89400;-66
2023/09/21 02:00:41;;;;;;;;;;;;;;;;;;4954462;28;89063;-67
2023/09/21 02:03:08;;;;;;;;;;;;;;;;;;4955743;28;89726;-66
2023/09/21 02:05:34;;;;;;;;;;;;;;;;;;4956184;28;90175;-66
2023/09/21 02:07:59;;;;;;;;;;;;;;;;;;4957277;28;90214;-66
2023/09/21 02:10:25;;;;;;;;;;;;;;;;;;4955788;28;89268;-66
2023/09/21 02:12:57;;;;;;;;;;;;;;;;;;4954278;28;89595;-66
2023/09/21 02:15:26;;;;;;;;;;;;;;;;;;4956125;28;89227;-66
2023/09/21 02:17:54;;;;;;;;;;;;;;;;;;4950252;28;90241;-67
2023/09/21 02:20:20;;;;;;;;;;;;;;;;;;4951641;28;89774;-66
2023/09/21 02:22:47;;;;;;;;;;;;;;;;;;4955535;28;90316;-66
2023/09/21 02:25:13;;;;;;;;;;;;;;;;;;4953896;28;90089;-66
2023/09/21 02:27:39;;;;;;;;;;;;;;;;;;4958243;28;89396;-66
2023/09/21 02:30:06;;;;;;;;;;;;;;;;;;4952393;28;90296;-66
2023/09/21 02:32:33;;;;;;;;;;;;;;;;;;4961995;28;89761;-66
2023/09/21 02:34:59;;;;;;;;;;;;;;;;;;4955508;28;90667;-66
2023/09/21 02:37:25;;;;;;;;;;;;;;;;;;4952939;28;90457;-67
2023/09/21 02:39:50;;;;;;;;;;;;;;;;;;4949600;28;90023;-66
2023/09/21 02:42:15;;;;;;;;;;;;;;;;;;4959277;28;89702;-66
2023/09/21 02:44:40;;;;;;;;;;;;;;;;;;4956283;28;89437;-66
2023/09/21 02:47:06;;;;;;;;;;;;;;;;;;4954750;28;90786;-66
2023/09/21 02:49:31;;;;;;;;;;;;;;;;;;4951229;28;89660;-66
2023/09/21 02:51:56;;;;;;;;;;;;;;;;;;4957924;28;89679;-66
2023/09/21 02:54:22;;;;;;;;;;;;;;;;;;4957746;28;90778;-66
2023/09/21 02:56:48;;;;;;;;;;;;;;;;;;4955225;28;89209;-66
2023/09/21 02:59:14;;;;;;;;;;;;;;;;;;4956471;28;90785;-66
2023/09/21 03:01:39;;;;;;;;;;;;;;;;;;4976749;28;90959;-66
2023/09/21 03:04:04;;;;;;;;;;;;;;;;;;4956874;28;89935;-66
2023/09/21 03:06:32;;;;;;;;;;;;;;;;;;4958586;28;89661;-66
2023/09/21 03:08:57;;;;;;;;;;;;;;;;;;4960248;28;90840;-66
2023/09/21 03:11:23;;;;;;;;;;;;;;;;;;4957066;28;89387;-66
2023/09/21 03:13:48;;;;;;;;;;;;;;;;;;4958718;28;89556;-66
2023/09/21 03:16:17;;;;;;;;;;;;;;;;;;4958429;28;90122;-68
2023/09/21 03:18:42;;;;;;;;;;;;;;;;;;4956297;28;91145;-66
2023/09/21 03:21:11;;;;;;;;;;;;;;;;;;4958949;28;89275;-66
2023/09/21 03:23:37;;;;;;;;;;;;;;;;;;4955729;28;89351;-67
2023/09/21 03:26:02;;;;;;;;;;;;;;;;;;4960627;28;89475;-66
2023/09/21 03:28:27;;;;;;;;;;;;;;;;;;4961444;28;90317;-66
2023/09/21 03:30:54;;;;;;;;;;;;;;;;;;4956896;28;90017;-67
2023/09/21 03:33:20;;;;;;;;;;;;;;;;;;4957009;28;89803;-66
2023/09/21 03:35:45;;;;;;;;;;;;;;;;;;4956243;28;89401;-66
2023/09/21 03:38:12;;;;;;;;;;;;;;;;;;4963641;28;90012;-66
2023/09/21 03:40:37;;;;;;;;;;;;;;;;;;4963890;28;89352;-66
2023/09/21 03:43:03;;;;;;;;;;;;;;;;;;4957329;28;89849;-66
2023/09/21 03:45:29;;;;;;;;;;;;;;;;;;4955144;28;90328;-66
2023/09/21 03:47:55;;;;;;;;;;;;;;;;;;4952711;28;90971;-67
2023/09/21 03:50:21;;;;;;;;;;;;;;;;;;4957281;28;89506;-66
2023/09/21 03:52:50;;;;;;;;;;;;;;;;;;4956640;28;92560;-66
2023/09/21 03:55:16;;;;;;;;;;;;;;;;;;4969285;28;91839;-66
2023/09/21 03:57:42;;;;;;;;;;;;;;;;;;4961721;28;89870;-66
2023/09/21 04:00:17;;;;;;;;;;;;;;;;;;4959221;28;89769;-66
2023/09/21 04:02:45;;;;;;;;;;;;;;;;;;4955953;28;89345;-66
2023/09/21 04:05:18;;;;;;;;;;;;;;;;;;4959737;28;89440;-66
2023/09/21 04:07:44;;;;;;;;;;;;;;;;;;4958467;28;90299;-66
2023/09/21 04:10:09;;;;;;;;;;;;;;;;;;4954997;28;89022;-66
2023/09/21 04:12:34;;;;;;;;;;;;;;;;;;4954096;28;90763;-66
2023/09/21 04:14:59;;;;;;;;;;;;;;;;;;4961759;28;91267;-66
2023/09/21 04:17:26;;;;;;;;;;;;;;;;;;4956713;28;89683;-67
2023/09/21 04:19:52;;;;;;;;;;;;;;;;;;4959604;28;89616;-66
2023/09/21 04:22:18;;;;;;;;;;;;;;;;;;4955821;28;90054;-67
2023/09/21 04:24:43;;;;;;;;;;;;;;;;;;4960334;28;89791;-66
2023/09/21 04:27:08;;;;;;;;;;;;;;;;;;4959409;28;89811;-66
2023/09/21 04:29:33;;;;;;;;;;;;;;;;;;4963535;28;89388;-66
2023/09/21 04:31:59;;;;;;;;;;;;;;;;;;4957466;28;89583;-66
2023/09/21 04:34:25;;;;;;;;;;;;;;;;;;4954334;28;89847;-66
2023/09/21 04:36:50;;;;;;;;;;;;;;;;;;4958958;28;89085;-66
2023/09/21 04:39:15;;;;;;;;;;;;;;;;;;4960795;28;89555;-66
2023/09/21 04:41:40;;;;;;;;;;;;;;;;;;4963035;28;89108;-66
2023/09/21 04:44:08;;;;;;;;;;;;;;;;;;4953404;28;89901;-66
2023/09/21 04:46:36;;;;;;;;;;;;;;;;;;4956323;28;90074;-66
2023/09/21 04:49:02;;;;;;;;;;;;;;;;;;4957769;28;89026;-66
2023/09/21 04:51:27;;;;;;;;;;;;;;;;;;4957840;28;89382;-66
2023/09/21 04:53:52;;;;;;;;;;;;;;;;;;4959087;28;90647;-66
2023/09/21 04:56:18;;;;;;;;;;;;;;;;;;4954350;28;90086;-66
2023/09/21 04:58:43;;;;;;;;;;;;;;;;;;4962829;28;93109;-66
2023/09/21 05:01:10;;;;;;;;;;;;;;;;;;4959403;28;90688;-66
2023/09/21 05:03:36;;;;;;;;;;;;;;;;;;4958808;28;89437;-66
2023/09/21 05:06:02;;;;;;;;;;;;;;;;;;4954496;28;89614;-66
2023/09/21 05:08:27;;;;;;;;;;;;;;;;;;4957158;28;90100;-66
2023/09/21 05:10:53;;;;;;;;;;;;;;;;;;4952319;28;89677;-66
2023/09/21 05:13:20;;;;;;;;;;;;;;;;;;4958002;28;89467;-66
2023/09/21 05:15:48;;;;;;;;;;;;;;;;;;4957522;28;89401;-66
2023/09/21 05:18:13;;;;;;;;;;;;;;;;;;4956747;28;90024;-66
2023/09/21 05:20:38;;;;;;;;;;;;;;;;;;4961568;28;89346;-66
2023/09/21 05:23:04;;;;;;;;;;;;;;;;;;4955714;28;89230;-66
2023/09/21 05:25:31;;;;;;;;;;;;;;;;;;4959898;28;90722;-66
2023/09/21 05:27:57;;;;;;;;;;;;;;;;;;4958465;28;90261;-66
2023/09/21 05:30:23;;;;;;;;;;;;;;;;;;4957175;28;90056;-66
2023/09/21 05:32:48;;;;;;;;;;;;;;;;;;4956965;28;89769;-65
2023/09/21 05:35:16;;;;;;;;;;;;;;;;;;4951281;28;89700;-66
2023/09/21 05:37:41;;;;;;;;;;;;;;;;;;4958688;28;90851;-66
2023/09/21 05:40:11;;;;;;;;;;;;;;;;;;4955033;28;90325;-72
2023/09/21 05:42:36;;;;;;;;;;;;;;;;;;4957212;28;89240;-67
2023/09/21 05:45:02;;;;;;;;;;;;;;;;;;4951486;28;89609;-68
2023/09/21 05:47:27;;;;;;;;;;;;;;;;;;4959123;28;89314;-67
2023/09/21 05:49:52;;;;;;;;;;;;;;;;;;4970698;28;90826;-67
2023/09/21 05:52:18;;;;;;;;;;;;;;;;;;4955352;28;89713;-66
2023/09/21 05:54:44;;;;;;;;;;;;;;;;;;4954529;28;89811;-66
2023/09/21 05:57:10;;;;;;;;;;;;;;;;;;4955329;28;91548;-67
2023/09/21 05:59:36;;;;;;;;;;;;;;;;;;4957497;28;90194;-67
2023/09/21 06:02:04;;;;;;;;;;;;;;;;;;4954635;28;89677;-68
2023/09/21 06:04:30;;;;;;;;;;;;;;;;;;4955294;28;90935;-67
2023/09/21 06:06:58;;;;;;;;;;;;;;;;;;4959233;28;90146;-67
2023/09/21 06:09:23;;;;;;;;;;;;;;;;;;4960046;28;90072;-67
2023/09/21 06:11:49;;;;;;;;;;;;;;;;;;4973112;28;91700;-67
2023/09/21 06:14:15;;;;;;;;;;;;;;;;;;4956574;28;90674;-66
2023/09/21 06:16:43;;;;;;;;;;;;;;;;;;4953339;28;91004;-66
2023/09/21 06:19:11;;;;;;;;;;;;;;;;;;4949222;28;90238;-69
2023/09/21 06:21:36;;;;;;;;;;;;;;;;;;4955784;28;89918;-66
2023/09/21 06:24:03;;;;;;;;;;;;;;;;;;4954049;28;89779;-67
2023/09/21 06:26:29;;;;;;;;;;;;;;;;;;4953349;28;90898;-68
2023/09/21 06:28:54;;;;;;;;;;;;;;;;;;4952229;28;89656;-69
2023/09/21 06:31:20;;;;;;;;;;;;;;;;;;4956475;28;90779;-67
2023/09/21 06:33:45;;;;;;;;;;;;;;;;;;4957111;28;90290;-68
2023/09/21 06:36:20;;;;;;;;;;;;;;;;;;4954344;28;89593;-68
2023/09/21 06:38:46;;;;;;;;;;;;;;;;;;4956528;28;90921;-67
2023/09/21 06:41:12;;;;;;;;;;;;;;;;;;4958903;28;89605;-67
2023/09/21 06:43:39;;;;;;;;;;;;;;;;;;4960576;28;90057;-68
2023/09/21 06:46:05;;;;;;;;;;;;;;;;;;4954361;28;90247;-70
2023/09/21 06:48:30;;;;;;;;;;;;;;;;;;4960048;28;89768;-69
2023/09/21 06:50:55;;;;;;;;;;;;;;;;;;4958337;28;89523;-70
2023/09/21 06:53:23;;;;;;;;;;;;;;;;;;4958716;28;89499;-67
2023/09/21 06:55:48;;;;;;;;;;;;;;;;;;4953710;28;92361;-67
2023/09/21 06:58:13;;;;;;;;;;;;;;;;;;4956178;28;90272;-68
2023/09/21 07:00:38;;;;;;;;;;;;;;;;;;4956129;28;89307;-67
2023/09/21 07:03:04;;;;;;;;;;;;;;;;;;4952355;28;89738;-70
2023/09/21 07:05:29;;;;;;;;;;;;;;;;;;4956363;28;89956;-67
2023/09/21 07:07:55;;;;;;;;;;;;;;;;;;4969714;28;89698;-67
2023/09/21 07:10:20;;;;;;;;;;;;;;;;;;4950950;28;90007;-68
2023/09/21 07:12:45;;;;;;;;;;;;;;;;;;4959020;28;91721;-73
2023/09/21 07:15:10;;;;;;;;;;;;;;;;;;4956169;28;89488;-69
2023/09/21 07:17:36;;;;;;;;;;;;;;;;;;4955745;28;89349;-72
2023/09/21 07:20:04;;;;;;;;;;;;;;;;;;4957114;28;89118;-72
2023/09/21 07:22:29;;;;;;;;;;;;;;;;;;4955967;28;89998;-72
2023/09/21 07:24:55;;;;;;;;;;;;;;;;;;4949672;28;89574;-71
2023/09/21 07:27:22;;;;;;;;;;;;;;;;;;4954563;28;89192;-68
2023/09/21 07:29:47;;;;;;;;;;;;;;;;;;4953537;28;90289;-73
2023/09/21 07:32:12;;;;;;;;;;;;;;;;;;4953671;28;90487;-73
2023/09/21 07:34:37;;;;;;;;;;;;;;;;;;4959530;28;90091;-72
2023/09/21 07:37:03;;;;;;;;;;;;;;;;;;4952946;28;90918;-72
2023/09/21 07:39:28;;;;;;;;;;;;;;;;;;4952468;28;89141;-70
2023/09/21 07:41:53;;;;;;;;;;;;;;;;;;4955767;28;89455;-73
2023/09/21 07:44:19;;;;;;;;;;;;;;;;;;4959449;28;89923;-73
2023/09/21 07:46:44;;;;;;;;;;;;;;;;;;4956433;28;90010;-69
2023/09/21 07:49:09;;;;;;;;;;;;;;;;;;4956643;28;90757;-72
2023/09/21 07:51:35;;;;;;;;;;;;;;;;;;4961506;28;90133;-70
2023/09/21 07:54:03;;;;;;;;;;;;;;;;;;4955817;28;89718;-68
2023/09/21 07:56:29;;;;;;;;;;;;;;;;;;4961341;28;91491;-70
2023/09/21 07:58:55;;;;;;;;;;;;;;;;;;4956540;28;89719;-70
2023/09/21 08:01:21;;;;;;;;;;;;;;;;;;4963254;28;90074;-69
2023/09/21 08:03:46;;;;;;;;;;;;;;;;;;4959919;28;89387;-68
2023/09/21 08:06:12;;;;;;;;;;;;;;;;;;4953854;28;90990;-67
2023/09/21 08:08:37;;;;;;;;;;;;;;;;;;4953584;28;91598;-71
2023/09/21 08:11:02;;;;;;;;;;;;;;;;;;4954695;28;90878;-71
2023/09/21 08:13:29;;;;;;;;;;;;;;;;;;4956525;28;89473;-79
2023/09/21 08:15:54;;;;;;;;;;;;;;;;;;4958421;28;89736;-72
2023/09/21 08:18:19;;;;;;;;;;;;;;;;;;4959277;28;89417;-72
2023/09/21 08:20:45;;;;;;;;;;;;;;;;;;4955315;28;89813;-72
2023/09/21 08:23:10;;;;;;;;;;;;;;;;;;4957599;28;89614;-71
2023/09/21 08:25:37;;;;;;;;;;;;;;;;;;4955334;28;90155;-72
2023/09/21 08:28:07;;;;;;;;;;;;;;;;;;4953932;28;89657;-72
2023/09/21 08:30:33;;;;;;;;;;;;;;;;;;4955645;28;89620;-73
2023/09/21 08:32:58;;;;;;;;;;;;;;;;;;4964696;28;89548;-72
2023/09/21 08:35:24;;;;;;;;;;;;;;;;;;4961711;28;90059;-69
2023/09/21 08:37:50;;;;;;;;;;;;;;;;;;4964178;28;90909;-72
2023/09/21 08:40:16;;;;;;;;;;;;;;;;;;4964036;28;89518;-67
2023/09/21 08:42:41;;;;;;;;;;;;;;;;;;4959679;28;89428;-68
2023/09/21 08:45:11;;;;;;;;;;;;;;;;;;4957495;28;90189;-71
2023/09/21 08:47:40;;;;;;;;;;;;;;;;;;4958080;28;90818;-68
2023/09/21 08:50:07;;;;;;;;;;;;;;;;;;4961086;28;90427;-68
2023/09/21 08:52:33;;;;;;;;;;;;;;;;;;4961140;28;90550;-67
2023/09/21 08:54:58;;;;;;;;;;;;;;;;;;4962755;28;90059;-71
2023/09/21 08:57:25;;;;;;;;;;;;;;;;;;4960941;28;89393;-71
2023/09/21 08:59:53;;;;;;;;;;;;;;;;;;4964646;28;90805;-71
2023/09/21 09:02:18;;;;;;;;;;;;;;;;;;4957218;28;89470;-71
2023/09/21 09:04:43;;;;;;;;;;;;;;;;;;4964374;28;89614;-70
2023/09/21 09:07:12;;;;;;;;;;;;;;;;;;4963120;28;89849;-72
2023/09/21 09:09:39;;;;;;;;;;;;;;;;;;4962255;28;91643;-69
2023/09/21 09:12:19;;;;;;;;;;;;;;;;;;4961332;28;89973;-69
2023/09/21 09:14:44;;;;;;;;;;;;;;;;;;4959522;28;89765;-72
2023/09/21 09:17:12;;;;;;;;;;;;;;;;;;4959153;28;89381;-72
2023/09/21 09:19:37;;;;;;;;;;;;;;;;;;4974473;28;91503;-72
2023/09/21 09:22:03;;;;;;;;;;;;;;;;;;4963273;28;90353;-73
2023/09/21 09:24:31;;;;;;;;;;;;;;;;;;4957310;28;89475;-72
2023/09/21 09:26:57;;;;;;;;;;;;;;;;;;4960586;28;91011;-70
2023/09/21 09:29:23;;;;;;;;;;;;;;;;;;4958602;28;90647;-70
2023/09/21 09:31:48;;;;;;;;;;;;;;;;;;4961667;28;90797;-70
2023/09/21 09:34:18;;;;;;;;;;;;;;;;;;4956946;28;89793;-71
2023/09/21 09:36:48;;;;;;;;;;;;;;;;;;4959565;28;90927;-68
2023/09/21 09:39:15;;;;;;;;;;;;;;;;;;4958769;28;89057;-73
2023/09/21 09:41:40;;;;;;;;;;;;;;;;;;4960375;28;89886;-70
2023/09/21 09:44:06;;;;;;;;;;;;;;;;;;4960320;28;89157;-72
2023/09/21 09:46:33;;;;;;;;;;;;;;;;;;4959120;28;91728;-71
2023/09/21 09:49:01;;;;;;;;;;;;;;;;;;4958636;28;89589;-71
2023/09/21 09:51:30;;;;;;;;;;;;;;;;;;4957521;28;89468;-72
2023/09/21 09:53:56;;;;;;;;;;;;;;;;;;4957043;28;89734;-69
2023/09/21 09:56:23;;;;;;;;;;;;;;;;;;4959294;28;89306;-69
2023/09/21 09:58:49;;;;;;;;;;;;;;;;;;4959224;28;89435;-69
2023/09/21 10:01:16;;;;;;;;;;;;;;;;;;4959826;28;90646;-70
2023/09/21 10:03:43;;;;;;;;;;;;;;;;;;4957001;28;90928;-69
2023/09/21 10:06:09;;;;;;;;;;;;;;;;;;4962309;28;89599;-74
2023/09/21 10:08:38;;;;;;;;;;;;;;;;;;4956670;28;90327;-69
2023/09/21 10:11:06;;;;;;;;;;;;;;;;;;4960791;28;90265;-72
2023/09/21 10:13:32;;;;;;;;;;;;;;;;;;4959534;28;90667;-72
2023/09/21 10:16:01;;;;;;;;;;;;;;;;;;4959294;28;89996;-69
2023/09/21 10:18:31;;;;;;;;;;;;;;;;;;4957029;28;89489;-71
2023/09/21 10:20:59;;;;;;;;;;;;;;;;;;4960065;28;89852;-70
2023/09/21 10:23:27;;;;;;;;;;;;;;;;;;4961580;28;89371;-70
2023/09/21 10:25:55;;;;;;;;;;;;;;;;;;4962617;28;90616;-66
2023/09/21 10:28:27;;;;;;;;;;;;;;;;;;4959161;28;90582;-68
2023/09/21 10:30:53;;;;;;;;;;;;;;;;;;4959377;28;89166;-66
2023/09/21 10:33:18;;;;;;;;;;;;;;;;;;4960657;28;89580;-71
2023/09/21 10:35:49;;;;;;;;;;;;;;;;;;4959579;28;89685;-73
2023/09/21 10:38:15;;;;;;;;;;;;;;;;;;4958324;28;90527;-73
2023/09/21 10:40:40;;;;;;;;;;;;;;;;;;4959892;28;89498;-69
2023/09/21 10:43:38;;;;;;;;;;;;;;;;;;4961835;28;89418;-70
2023/09/21 10:46:16;;;;;;;;;;;;;;;;;;4957591;28;89602;-72
2023/09/21 10:48:45;;;;;;;;;;;;;;;;;;4960518;28;89739;-73
2023/09/21 10:51:10;;;;;;;;;;;;;;;;;;4960004;28;90767;-70
2023/09/21 10:53:36;;;;;;;;;;;;;;;;;;4958595;28;89513;-72
2023/09/21 10:56:02;;;;;;;;;;;;;;;;;;4957542;28;90117;-72
2023/09/21 10:58:31;;;;;;;;;;;;;;;;;;4958764;28;89065;-70
2023/09/21 11:00:58;;;;;;;;;;;;;;;;;;4961227;28;89486;-72
2023/09/21 11:03:25;;;;;;;;;;;;;;;;;;4956071;28;90116;-68
2023/09/21 11:05:51;;;;;;;;;;;;;;;;;;4955009;28;89256;-71
2023/09/21 11:08:16;;;;;;;;;;;;;;;;;;4960363;28;89581;-74
2023/09/21 11:10:42;;;;;;;;;;;;;;;;;;4962225;28;89713;-73
2023/09/21 11:13:08;;;;;;;;;;;;;;;;;;4959992;28;91015;-68
2023/09/21 11:15:33;;;;;;;;;;;;;;;;;;4954388;28;89877;-74
2023/09/21 11:17:59;;;;;;;;;;;;;;;;;;4964145;28;89240;-71
2023/09/21 11:20:25;;;;;;;;;;;;;;;;;;4958603;28;90743;-72
2023/09/21 11:22:50;;;;;;;;;;;;;;;;;;4964356;28;89929;-74
2023/09/21 11:25:20;;;;;;;;;;;;;;;;;;4965854;28;89544;-71
2023/09/21 11:27:46;;;;;;;;;;;;;;;;;;4961785;28;89547;-73
2023/09/21 11:30:11;;;;;;;;;;;;;;;;;;4957851;28;89516;-73
2023/09/21 11:32:47;;;;;;;;;;;;;;;;;;4965835;28;89507;-72
2023/09/21 11:35:14;;;;;;;;;;;;;;;;;;4958352;28;90590;-71
2023/09/21 11:37:41;;;;;;;;;;;;;;;;;;4955739;28;90871;-70
2023/09/21 11:40:11;;;;;;;;;;;;;;;;;;4961794;28;90619;-72
2023/09/21 11:42:40;;;;;;;;;;;;;;;;;;4963491;28;89255;-71
2023/09/21 11:45:06;;;;;;;;;;;;;;;;;;4961556;28;88988;-72
2023/09/21 11:47:32;;;;;;;;;;;;;;;;;;4966631;28;91353;-74
2023/09/21 11:50:02;;;;;;;;;;;;;;;;;;4961945;28;89349;-68
2023/09/21 11:52:27;;;;;;;;;;;;;;;;;;4962110;28;89013;-71
2023/09/21 11:54:53;;;;;;;;;;;;;;;;;;4961561;28;89960;-69
2023/09/21 11:57:19;;;;;;;;;;;;;;;;;;4961200;28;89568;-73
2023/09/21 11:59:44;;;;;;;;;;;;;;;;;;4959430;28;89951;-70
2023/09/21 12:02:10;;;;;;;;;;;;;;;;;;4965544;28;89127;-67
2023/09/21 12:04:37;;;;;;;;;;;;;;;;;;4964220;28;89312;-67
2023/09/21 12:07:04;;;;;;;;;;;;;;;;;;4961940;28;90959;-69
2023/09/21 12:09:29;;;;;;;;;;;;;;;;;;4964841;28;89822;-68
2023/09/21 12:11:54;;;;;;;;;;;;;;;;;;4963951;28;89008;-71
2023/09/21 12:14:22;;;;;;;;;;;;;;;;;;4959936;28;90830;-72
2023/09/21 12:16:50;;;;;;;;;;;;;;;;;;4960563;28;90497;-73
2023/09/21 12:19:18;;;;;;;;;;;;;;;;;;4958080;28;89986;-74
2023/09/21 12:21:44;;;;;;;;;;;;;;;;;;4962223;28;90976;-70
2023/09/21 12:24:10;;;;;;;;;;;;;;;;;;4964034;28;89593;-72
2023/09/21 12:26:36;;;;;;;;;;;;;;;;;;4959271;28;91355;-73
2023/09/21 12:29:02;;;;;;;;;;;;;;;;;;4974629;28;90258;-72
2023/09/21 12:31:27;;;;;;;;;;;;;;;;;;4964591;28;89687;-73
2023/09/21 12:33:52;;;;;;;;;;;;;;;;;;4961456;28;90633;-72
2023/09/21 12:36:18;;;;;;;;;;;;;;;;;;4963429;28;89125;-73
2023/09/21 12:38:44;;;;;;;;;;;;;;;;;;4960039;28;89532;-68
2023/09/21 12:41:09;;;;;;;;;;;;;;;;;;4963843;28;91287;-73
2023/09/21 12:43:35;;;;;;;;;;;;;;;;;;4960875;28;90162;-68
2023/09/21 12:46:01;;;;;;;;;;;;;;;;;;4958567;28;89642;-72
2023/09/21 12:48:28;;;;;;;;;;;;;;;;;;4957797;28;90371;-73
2023/09/21 12:50:53;;;;;;;;;;;;;;;;;;4962151;28;89478;-73
2023/09/21 12:53:19;;;;;;;;;;;;;;;;;;4962246;28;89734;-74
2023/09/21 12:55:44;;;;;;;;;;;;;;;;;;4961338;28;89720;-72
2023/09/21 12:58:11;;;;;;;;;;;;;;;;;;4962508;28;89875;-74
2023/09/21 13:00:37;;;;;;;;;;;;;;;;;;4957966;28;90522;-74
2023/09/21 13:03:04;;;;;;;;;;;;;;;;;;4962699;28;89860;-74
2023/09/21 13:05:29;;;;;;;;;;;;;;;;;;4963514;28;90871;-74
2023/09/21 13:07:54;;;;;;;;;;;;;;;;;;4962771;28;89862;-71
2023/09/21 13:10:19;;;;;;;;;;;;;;;;;;4961704;28;89768;-74
2023/09/21 13:12:45;;;;;;;;;;;;;;;;;;4962521;28;92952;-75
2023/09/21 13:15:10;;;;;;;;;;;;;;;;;;4957897;28;89166;-75
2023/09/21 13:17:36;;;;;;;;;;;;;;;;;;4961735;28;89405;-75
2023/09/21 13:20:05;;;;;;;;;;;;;;;;;;4962825;28;89725;-76
2023/09/21 13:22:31;;;;;;;;;;;;;;;;;;4960509;28;89603;-71
2023/09/21 13:24:57;;;;;;;;;;;;;;;;;;4963292;28;91639;-72
2023/09/21 13:27:24;;;;;;;;;;;;;;;;;;4961393;28;89627;-72
2023/09/21 13:29:49;;;;;;;;;;;;;;;;;;4962760;28;89891;-75
2023/09/21 13:32:14;;;;;;;;;;;;;;;;;;4962071;28;89597;-72
2023/09/21 13:34:39;;;;;;;;;;;;;;;;;;4960482;28;89828;-72
2023/09/21 13:37:04;;;;;;;;;;;;;;;;;;4956101;28;90261;-73
2023/09/21 13:39:31;;;;;;;;;;;;;;;;;;4958986;28;90919;-70
2023/09/21 13:41:57;;;;;;;;;;;;;;;;;;4963314;28;90294;-67
2023/09/21 13:44:22;;;;;;;;;;;;;;;;;;4959347;28;90894;-70
2023/09/21 13:46:48;;;;;;;;;;;;;;;;;;4957010;28;89129;-70
2023/09/21 13:49:13;;;;;;;;;;;;;;;;;;4955134;28;89340;-74
2023/09/21 13:51:40;;;;;;;;;;;;;;;;;;4959595;28;89535;-73
2023/09/21 13:54:05;;;;;;;;;;;;;;;;;;4956533;28;90294;-69
2023/09/21 13:56:31;;;;;;;;;;;;;;;;;;4958082;28;89705;-73
2023/09/21 13:58:56;;;;;;;;;;;;;;;;;;4958156;28;89495;-69
2023/09/21 14:01:21;;;;;;;;;;;;;;;;;;4956079;28;90183;-72
2023/09/21 14:03:47;;;;;;;;;;;;;;;;;;4959534;28;89793;-72
2023/09/21 14:06:12;;;;;;;;;;;;;;;;;;4955653;28;90051;-71
2023/09/21 14:08:38;;;;;;;;;;;;;;;;;;4954970;28;89564;-73
2023/09/21 14:11:03;;;;;;;;;;;;;;;;;;4955508;28;90588;-68
2023/09/21 14:13:29;;;;;;;;;;;;;;;;;;4955326;28;89310;-73
2023/09/21 14:15:54;;;;;;;;;;;;;;;;;;4955200;28;90722;-70
2023/09/21 14:18:19;;;;;;;;;;;;;;;;;;4954815;28;91074;-75
2023/09/21 14:20:46;;;;;;;;;;;;;;;;;;4956827;28;90974;-67
2023/09/21 14:23:11;;;;;;;;;;;;;;;;;;4962203;28;89461;-71
2023/09/21 14:25:36;;;;;;;;;;;;;;;;;;4960581;28;89381;-75
2023/09/21 14:28:02;;;;;;;;;;;;;;;;;;4961591;28;89932;-73
2023/09/21 14:30:27;;;;;;;;;;;;;;;;;;4958006;28;90594;-69
2023/09/21 14:32:54;;;;;;;;;;;;;;;;;;4958112;28;89762;-70
2023/09/21 14:35:19;;;;;;;;;;;;;;;;;;4957484;28;89770;-69
2023/09/21 14:37:44;;;;;;;;;;;;;;;;;;4956099;28;90200;-71
2023/09/21 14:40:10;;;;;;;;;;;;;;;;;;4952007;28;89862;-68
2023/09/21 14:42:35;;;;;;;;;;;;;;;;;;4956668;28;89126;-69
2023/09/21 14:45:00;;;;;;;;;;;;;;;;;;4958816;28;89578;-68
2023/09/21 14:47:30;;;;;;;;;;;;;;;;;;4954093;28;89787;-74
2023/09/21 14:49:56;;;;;;;;;;;;;;;;;;4955746;28;91001;-68
2023/09/21 14:52:22;;;;;;;;;;;;;;;;;;4952549;28;90461;-73
2023/09/21 14:54:49;;;;;;;;;;;;;;;;;;4955837;28;89595;-73
2023/09/21 14:57:14;;;;;;;;;;;;;;;;;;4959296;28;90707;-69
2023/09/21 14:59:40;;;;;;;;;;;;;;;;;;4955997;28;90266;-73
2023/09/21 15:02:07;;;;;;;;;;;;;;;;;;4961830;28;89869;-72
2023/09/21 15:04:33;;;;;;;;;;;;;;;;;;4955419;28;89610;-70
2023/09/21 15:06:58;;;;;;;;;;;;;;;;;;4960543;28;89717;-72
2023/09/21 15:09:23;;;;;;;;;;;;;;;;;;4961886;28;92462;-70
2023/09/21 15:11:48;;;;;;;;;;;;;;;;;;4957927;28;90097;-68
2023/09/21 15:14:14;;;;;;;;;;;;;;;;;;4958435;28;89878;-71
2023/09/21 15:16:40;;;;;;;;;;;;;;;;;;4955586;28;92266;-68
2023/09/21 15:19:05;;;;;;;;;;;;;;;;;;4952013;28;89335;-68
2023/09/21 15:21:31;;;;;;;;;;;;;;;;;;4958260;28;89110;-69
2023/09/21 15:23:57;;;;;;;;;;;;;;;;;;4954226;28;89762;-68
2023/09/21 15:26:22;;;;;;;;;;;;;;;;;;4953829;28;89290;-71
2023/09/21 15:28:47;;;;;;;;;;;;;;;;;;4958173;28;89128;-72
2023/09/21 15:31:13;;;;;;;;;;;;;;;;;;4954264;28;89157;-67
2023/09/21 15:33:38;;;;;;;;;;;;;;;;;;4953769;28;89118;-69
2023/09/21 15:36:03;;;;;;;;;;;;;;;;;;4957795;28;90729;-71
2023/09/21 15:38:29;;;;;;;;;;;;;;;;;;4961189;28;89495;-70
2023/09/21 15:40:55;;;;;;;;;;;;;;;;;;4952525;28;89107;-67
2023/09/21 15:43:22;;;;;;;;;;;;;;;;;;4967874;28;90612;-67
2023/09/21 15:45:47;;;;;;;;;;;;;;;;;;4952143;28;89185;-66
2023/09/21 15:48:14;;;;;;;;;;;;;;;;;;4956781;28;90833;-69
2023/09/21 15:50:40;;;;;;;;;;;;;;;;;;4956127;28;91463;-68
2023/09/21 15:53:05;;;;;;;;;;;;;;;;;;4956316;28;90213;-68
2023/09/21 15:55:31;;;;;;;;;;;;;;;;;;4955652;28;90156;-68
2023/09/21 15:57:56;;;;;;;;;;;;;;;;;;4955832;28;89779;-68
2023/09/21 16:00:22;;;;;;;;;;;;;;;;;;4959176;28;89996;-68
2023/09/21 16:02:47;;;;;;;;;;;;;;;;;;4955429;28;89895;-69
2023/09/21 16:05:13;;;;;;;;;;;;;;;;;;4955139;28;91103;-69
2023/09/21 16:07:38;;;;;;;;;;;;;;;;;;4962098;28;89571;-67
2023/09/21 16:10:04;;;;;;;;;;;;;;;;;;4955266;28;92112;-68
2023/09/21 16:12:29;;;;;;;;;;;;;;;;;;4963040;28;91677;-69
2023/09/21 16:14:55;;;;;;;;;;;;;;;;;;4961683;28;89455;-67
2023/09/21 16:17:20;;;;;;;;;;;;;;;;;;4952701;28;90180;-66
2023/09/21 16:19:45;;;;;;;;;;;;;;;;;;4957940;28;90306;-67
2023/09/21 16:22:11;;;;;;;;;;;;;;;;;;4959727;28;89338;-69
2023/09/21 16:24:36;;;;;;;;;;;;;;;;;;4963031;28;90212;-69
2023/09/21 16:27:01;;;;;;;;;;;;;;;;;;4956975;28;89317;-72
2023/09/21 16:29:26;;;;;;;;;;;;;;;;;;4959628;28;89553;-67
2023/09/21 16:31:52;;;;;;;;;;;;;;;;;;4962837;28;89779;-67
2023/09/21 16:34:19;;;;;;;;;;;;;;;;;;4960919;28;91674;-68
2023/09/21 16:36:44;;;;;;;;;;;;;;;;;;4959821;28;90454;-67
2023/09/21 16:39:09;;;;;;;;;;;;;;;;;;4957070;28;90323;-69